createdAt,value
2022-11-04T00:01:58.462Z,2.20
2022-11-04T00:04:27.390Z,3.13
2022-11-04T00:06:54.483Z,2.15
2022-11-04T00:09:23.952Z,8.45
2022-11-04T00:12:09.694Z,0.77
2022-11-04T00:14:36.757Z,2.73
2022-11-04T00:17:19.407Z,4.70
2022-11-04T00:20:06.034Z,4.13
2022-11-04T00:22:51.537Z,4.38
2022-11-04T00:25:36.741Z,3.35
2022-11-04T00:28:28.984Z,4.50
2022-11-04T00:30:57.089Z,4.70
2022-11-04T00:33:26.993Z,3.75
2022-11-04T00:35:58.163Z,3.75
2022-11-04T00:38:25.789Z,5.47
2022-11-04T00:40:52.415Z,4.40
2022-11-04T00:43:19.062Z,5.40
2022-11-04T00:45:45.867Z,5.07
2022-11-04T00:48:12.386Z,6.72
2022-11-04T00:50:39.564Z,5.00
2022-11-04T00:53:06.331Z,2.27
2022-11-04T00:55:32.978Z,4.00
2022-11-04T00:57:59.701Z,10.05
2022-11-04T01:00:26.335Z,7.22
2022-11-04T01:02:52.996Z,2.63
2022-11-04T01:05:19.508Z,2.50
2022-11-04T01:07:45.953Z,3.03
2022-11-04T01:10:12.984Z,2.63
2022-11-04T01:12:39.393Z,4.63
2022-11-04T01:15:06.305Z,4.75
2022-11-04T01:17:32.768Z,2.97
2022-11-04T01:19:59.205Z,2.47
2022-11-04T01:22:26.568Z,6.45
2022-11-04T01:24:53.226Z,5.32
2022-11-04T01:27:19.577Z,4.30
2022-11-04T01:29:46.071Z,2.43
2022-11-04T01:32:12.518Z,5.35
2022-11-04T01:34:42.465Z,5.78
2022-11-04T01:37:10.540Z,5.68
2022-11-04T01:39:37.075Z,2.42
2022-11-04T01:44:43.402Z,1.13
2022-11-04T01:47:24.979Z,1.02
2022-11-04T01:49:58.121Z,5.68
2022-11-04T01:52:34.183Z,7.50
2022-11-04T01:55:07.249Z,5.43
2022-11-04T01:57:39.491Z,1.95
2022-11-04T02:00:07.978Z,1.85
2022-11-04T02:02:40.741Z,5.20
2022-11-04T02:05:07.567Z,0.68
2022-11-04T02:07:34.553Z,1.03
2022-11-04T02:10:01.180Z,1.85
2022-11-04T02:12:46.372Z,1.27
2022-11-04T02:15:12.844Z,3.70
2022-11-04T02:17:58.323Z,1.42
2022-11-04T02:21:11.376Z,2.70
2022-11-04T02:23:59.948Z,3.35
2022-11-04T02:26:52.148Z,0.60
2022-11-04T02:29:21.891Z,1.90
2022-11-04T02:32:16.575Z,4.10
2022-11-04T02:35:06.879Z,5.27
2022-11-04T02:38:10.085Z,0.98
2022-11-04T02:40:52.168Z,0.90
2022-11-04T02:43:39.967Z,1.23
2022-11-04T02:46:24.173Z,2.35
2022-11-04T02:49:07.445Z,1.30
2022-11-04T02:51:40.946Z,0.90
2022-11-04T02:54:14.487Z,3.88
2022-11-04T02:56:48.096Z,2.85
2022-11-04T02:59:20.281Z,3.80
2022-11-04T03:01:49.524Z,0.87
2022-11-04T03:04:21.339Z,1.77
2022-11-04T03:06:50.711Z,1.60
2022-11-04T03:09:19.702Z,3.85
2022-11-04T03:11:50.580Z,2.25
2022-11-04T03:14:35.894Z,1.93
2022-11-04T03:17:10.328Z,0.98
2022-11-04T03:19:58.233Z,1.20
2022-11-04T03:22:30.462Z,7.72
2022-11-04T03:24:58.090Z,1.00
2022-11-04T03:27:37.187Z,1.80
2022-11-04T03:30:10.433Z,3.25
2022-11-04T03:32:42.248Z,1.73
2022-11-04T03:35:10.055Z,1.25
2022-11-04T03:37:36.929Z,2.13
2022-11-04T03:40:04.457Z,2.60
2022-11-04T03:42:33.870Z,4.15
2022-11-04T03:45:00.434Z,2.55
2022-11-04T03:47:29.551Z,3.45
2022-11-04T03:50:11.171Z,1.52
2022-11-04T03:52:38.291Z,3.10
2022-11-04T03:55:06.725Z,3.10
2022-11-04T03:57:33.147Z,1.65
2022-11-04T04:00:34.154Z,1.27
2022-11-04T04:03:09.801Z,2.55
2022-11-04T04:05:52.561Z,2.20
2022-11-04T04:08:40.857Z,1.30
2022-11-04T04:11:44.240Z,3.30
2022-11-04T04:14:39.827Z,4.40
2022-11-04T04:17:17.988Z,2.90
2022-11-04T04:19:50.127Z,6.10
2022-11-04T04:22:31.599Z,6.95
2022-11-04T04:25:21.293Z,6.65
2022-11-04T04:27:50.849Z,8.77
2022-11-04T04:30:17.743Z,12.88
2022-11-04T04:33:08.274Z,14.80
2022-11-04T04:35:43.312Z,9.95
2022-11-04T04:38:41.993Z,9.32
2022-11-04T04:41:41.412Z,12.35
2022-11-04T04:44:39.095Z,10.13
2022-11-04T04:47:07.731Z,10.60
2022-11-04T04:49:37.010Z,10.10
2022-11-04T04:52:07.243Z,9.40
2022-11-04T04:54:33.858Z,25.13
2022-11-04T04:57:00.262Z,9.82
2022-11-04T04:59:26.716Z,12.17
2022-11-04T05:01:53.345Z,9.85
2022-11-04T05:04:19.893Z,14.30
2022-11-04T05:06:46.333Z,12.85
2022-11-04T05:09:12.797Z,9.55
2022-11-04T05:11:39.266Z,11.90
2022-11-04T05:14:05.711Z,18.25
2022-11-04T05:16:35.378Z,13.63
2022-11-04T05:19:04.599Z,13.50
2022-11-04T05:21:31.040Z,16.27
2022-11-04T05:23:57.484Z,12.00
2022-11-04T05:26:23.963Z,17.17
2022-11-04T05:28:50.481Z,13.50
2022-11-04T05:31:17.329Z,13.43
2022-11-04T05:33:43.791Z,11.90
2022-11-04T05:36:13.026Z,11.43
2022-11-04T05:38:40.058Z,15.07
2022-11-04T05:41:09.441Z,12.75
2022-11-04T05:43:36.564Z,17.05
2022-11-04T05:46:03.949Z,12.02
2022-11-04T05:48:30.596Z,14.40
2022-11-04T05:50:57.063Z,16.42
2022-11-04T05:53:23.502Z,14.70
2022-11-04T05:55:50.109Z,14.95
2022-11-04T05:58:16.571Z,14.73
2022-11-04T06:00:43.135Z,13.90
2022-11-04T06:03:12.193Z,18.40
2022-11-04T06:05:41.831Z,18.58
2022-11-04T06:08:08.722Z,13.32
2022-11-04T06:10:35.402Z,14.88
2022-11-04T06:13:01.837Z,11.57
2022-11-04T06:15:28.333Z,13.75
2022-11-04T06:17:54.764Z,12.90
2022-11-04T06:20:21.304Z,13.20
2022-11-04T06:22:47.949Z,13.25
2022-11-04T06:25:14.415Z,25.47
2022-11-04T06:27:41.361Z,23.80
2022-11-04T06:30:08.463Z,13.43
2022-11-04T06:32:35.001Z,16.08
2022-11-04T06:35:01.540Z,13.60
2022-11-04T06:37:28.130Z,12.57
2022-11-04T06:39:54.711Z,11.70
2022-11-04T06:42:21.268Z,15.10
2022-11-04T06:44:47.814Z,18.13
2022-11-04T06:47:14.308Z,12.45
2022-11-04T06:49:40.784Z,10.47
2022-11-04T06:52:07.328Z,12.75
2022-11-04T06:54:34.803Z,9.15
2022-11-04T06:57:02.921Z,12.40
2022-11-04T06:59:29.576Z,11.02
2022-11-04T07:01:56.101Z,7.50
2022-11-04T07:04:22.775Z,10.95
2022-11-04T07:06:49.295Z,10.23
2022-11-04T07:09:17.577Z,10.30
2022-11-04T07:11:45.120Z,9.38
2022-11-04T07:14:12.712Z,8.53
2022-11-04T07:16:39.707Z,7.90
2022-11-04T07:19:17.588Z,8.10
2022-11-04T07:21:44.152Z,7.97
2022-11-04T07:24:10.820Z,12.27
2022-11-04T07:26:37.365Z,8.77
2022-11-04T07:29:06.547Z,12.93
2022-11-04T07:31:33.094Z,5.55
2022-11-04T07:33:59.890Z,7.15
2022-11-04T07:36:26.960Z,10.80
2022-11-04T07:38:54.529Z,11.23
2022-11-04T07:41:21.782Z,12.80
2022-11-04T07:43:50.939Z,10.18
2022-11-04T07:46:18.872Z,11.20
2022-11-04T07:48:45.625Z,5.57
2022-11-04T07:51:18.136Z,10.50
2022-11-04T07:53:44.931Z,13.05
2022-11-04T07:56:14.116Z,7.18
2022-11-04T07:58:41.247Z,7.30
2022-11-04T08:01:14.121Z,9.02
2022-11-04T08:03:40.649Z,8.53
2022-11-04T08:06:09.159Z,10.75
2022-11-04T08:08:48.067Z,9.38
2022-11-04T08:11:20.846Z,8.85
2022-11-04T08:13:47.975Z,10.27
2022-11-04T08:16:19.030Z,6.93
2022-11-04T08:18:47.262Z,9.25
2022-11-04T08:21:13.891Z,6.50
2022-11-04T08:23:42.761Z,9.95
2022-11-04T08:26:12.682Z,7.07
2022-11-04T08:28:40.427Z,12.20
2022-11-04T08:31:14.617Z,8.40
2022-11-04T08:33:41.905Z,5.47
2022-11-04T08:36:30.705Z,10.52
2022-11-04T08:38:57.672Z,8.50
2022-11-04T08:41:30.790Z,5.77
2022-11-04T08:44:00.940Z,8.85
2022-11-04T08:46:29.400Z,11.07
2022-11-04T08:48:56.580Z,7.32
2022-11-04T08:51:30.855Z,8.23
2022-11-04T08:53:57.938Z,9.33
2022-11-04T08:56:27.975Z,7.65
2022-11-04T08:58:55.478Z,8.02
2022-11-04T09:01:22.912Z,7.35
2022-11-04T09:03:50.495Z,7.30
2022-11-04T09:06:20.734Z,6.13
2022-11-04T09:08:47.652Z,5.63
2022-11-04T09:11:19.934Z,7.18
2022-11-04T09:13:46.620Z,6.22
2022-11-04T09:16:14.308Z,5.18
2022-11-04T09:18:46.006Z,10.40
2022-11-04T09:21:14.379Z,11.25
2022-11-04T09:23:41.103Z,11.00
2022-11-04T09:26:11.849Z,8.07
2022-11-04T09:28:40.378Z,5.05
2022-11-04T09:31:15.900Z,5.80
2022-11-04T09:33:43.332Z,10.35
2022-11-04T09:36:11.562Z,9.10
2022-11-04T09:38:40.324Z,9.50
2022-11-04T09:41:38.137Z,10.55
2022-11-04T09:44:19.545Z,7.77
2022-11-04T09:46:49.426Z,11.68
2022-11-04T09:49:16.768Z,9.88
2022-11-04T09:51:55.167Z,9.30
2022-11-04T09:54:25.615Z,8.88
2022-11-04T09:56:55.316Z,6.80
2022-11-04T09:59:41.241Z,6.47
2022-11-04T10:02:43.229Z,10.40
2022-11-04T10:05:23.031Z,10.75
2022-11-04T10:07:58.572Z,6.47
2022-11-04T10:10:46.261Z,5.87
2022-11-04T10:13:31.323Z,6.90
2022-11-04T10:16:13.515Z,16.05
2022-11-04T10:19:39.562Z,9.63
2022-11-04T10:22:43.330Z,7.07
2022-11-04T10:25:22.460Z,16.27
2022-11-04T10:27:50.506Z,12.43
2022-11-04T10:30:21.044Z,11.02
2022-11-04T10:33:00.430Z,9.23
2022-11-04T10:35:34.287Z,12.55
2022-11-04T10:38:25.869Z,9.67
2022-11-04T10:40:54.240Z,13.23
2022-11-04T10:43:32.229Z,10.30
2022-11-04T10:45:58.714Z,9.75
2022-11-04T10:48:43.375Z,11.73
2022-11-04T10:51:10.051Z,10.27
2022-11-04T10:53:37.734Z,10.05
2022-11-04T10:56:22.875Z,12.07
2022-11-04T10:58:49.684Z,11.88
2022-11-04T11:01:30.699Z,14.48
2022-11-04T11:04:24.891Z,10.47
2022-11-04T11:06:54.085Z,12.05
2022-11-04T11:09:30.292Z,9.60
2022-11-04T11:12:48.903Z,12.70
2022-11-04T11:15:30.345Z,13.65
2022-11-04T11:18:10.971Z,11.63
2022-11-04T11:20:38.419Z,7.82
2022-11-04T11:23:10.191Z,10.95
2022-11-04T11:25:42.493Z,10.00
2022-11-04T11:28:21.930Z,10.85
2022-11-04T11:30:48.369Z,7.10
2022-11-04T11:33:23.199Z,11.73
2022-11-04T11:36:00.557Z,9.40
2022-11-04T11:38:33.291Z,7.10
2022-11-04T11:41:25.838Z,13.95
2022-11-04T11:43:55.895Z,9.23
2022-11-04T11:46:31.384Z,7.50
2022-11-04T11:49:03.751Z,8.13
2022-11-04T11:51:36.408Z,7.95
2022-11-04T11:54:17.555Z,9.23
2022-11-04T11:57:12.748Z,9.13
2022-11-04T12:02:55.812Z,8.38
2022-11-04T12:12:00.628Z,7.40
2022-11-04T12:14:36.346Z,4.28
2022-11-04T12:17:18.171Z,12.10
2022-11-04T12:20:08.855Z,7.38
2022-11-04T12:23:22.711Z,4.65
2022-11-04T12:26:17.872Z,5.37
2022-11-04T12:29:07.455Z,4.30
2022-11-04T12:32:08.046Z,4.40
2022-11-04T12:34:51.095Z,4.97
2022-11-04T12:37:40.558Z,3.92
2022-11-04T12:40:09.835Z,4.10
2022-11-04T12:43:00.794Z,5.60
2022-11-04T12:45:49.105Z,3.03
2022-11-04T12:48:50.787Z,4.13
2022-11-04T12:51:37.462Z,3.40
2022-11-04T12:54:37.952Z,2.77
2022-11-04T12:57:32.431Z,6.07
2022-11-04T13:00:25.383Z,3.35
2022-11-04T13:02:57.362Z,5.03
2022-11-04T13:05:48.094Z,6.65
2022-11-04T13:08:20.169Z,5.17
2022-11-04T13:11:23.854Z,4.47
2022-11-04T13:14:01.598Z,5.70
2022-11-04T13:16:30.649Z,3.17
2022-11-04T13:18:59.108Z,5.55
2022-11-04T13:21:32.388Z,5.07
2022-11-04T13:24:15.956Z,5.30
2022-11-04T13:26:43.257Z,3.53
2022-11-04T13:29:21.379Z,3.63
2022-11-04T13:31:48.081Z,6.18
2022-11-04T13:34:23.635Z,3.73
2022-11-04T13:37:08.563Z,3.50
2022-11-04T13:39:41.090Z,2.85
2022-11-04T13:42:07.503Z,1.90
2022-11-04T13:44:45.042Z,3.55
2022-11-04T13:47:22.402Z,3.60
2022-11-04T13:49:51.674Z,2.97
2022-11-04T13:52:30.273Z,0.90
2022-11-04T13:55:02.546Z,0.75
2022-11-04T13:57:52.188Z,0.98
2022-11-04T14:00:22.684Z,1.27
2022-11-04T14:02:49.263Z,1.08
2022-11-04T14:05:28.237Z,1.52
2022-11-04T14:08:00.932Z,1.75
2022-11-04T14:10:50.059Z,2.10
2022-11-04T14:13:34.128Z,1.90
2022-11-04T14:16:03.894Z,6.28
2022-11-04T14:18:39.911Z,1.55
2022-11-04T14:21:13.676Z,1.08
2022-11-04T14:23:43.052Z,0.80
2022-11-04T14:26:18.502Z,1.50
2022-11-04T14:29:00.176Z,1.05
2022-11-04T14:31:37.442Z,1.20
2022-11-04T14:34:05.863Z,1.70
2022-11-04T14:36:36.048Z,1.05
2022-11-04T14:39:11.762Z,2.03
2022-11-04T14:41:41.316Z,3.60
2022-11-04T14:44:50.482Z,1.40
2022-11-04T14:47:22.770Z,0.68
2022-11-04T14:49:52.598Z,1.42
2022-11-04T14:52:22.175Z,1.60
2022-11-04T14:54:53.367Z,1.20
2022-11-04T14:57:23.695Z,4.35
2022-11-04T14:59:52.306Z,2.47
2022-11-04T15:02:28.818Z,1.80
2022-11-04T15:05:00.940Z,1.17
2022-11-04T15:07:35.542Z,4.88
2022-11-04T15:10:17.631Z,2.55
2022-11-04T15:12:51.286Z,5.63
2022-11-04T15:15:29.817Z,1.48
2022-11-04T15:18:28.563Z,3.00
2022-11-04T15:21:00.569Z,1.45
2022-11-04T15:23:30.166Z,3.50
2022-11-04T15:25:58.357Z,1.20
2022-11-04T15:28:34.247Z,0.82
2022-11-04T15:31:15.426Z,3.60
2022-11-04T15:33:45.130Z,2.35
2022-11-04T15:36:23.611Z,1.60
2022-11-04T15:39:00.005Z,5.82
2022-11-04T15:41:47.931Z,31.65
2022-11-04T15:44:23.982Z,32.90
2022-11-04T15:46:58.388Z,28.40
2022-11-04T15:49:35.073Z,10.15
2022-11-04T15:52:09.058Z,21.35
2022-11-04T15:54:40.046Z,22.10
2022-11-04T15:57:32.427Z,6.20
2022-11-04T16:00:07.075Z,2.35
2022-11-04T16:02:38.525Z,9.80
2022-11-04T16:05:11.123Z,19.52
2022-11-04T16:07:43.451Z,16.73
2022-11-04T16:10:30.370Z,17.27
2022-11-04T16:13:00.545Z,11.27
2022-11-04T16:15:41.079Z,5.43
2022-11-04T16:18:23.743Z,0.68
2022-11-04T16:20:53.306Z,6.28
2022-11-04T16:23:25.236Z,4.17
2022-11-04T16:26:07.261Z,3.33
2022-11-04T16:28:39.504Z,2.75
2022-11-04T16:31:28.128Z,3.85
2022-11-04T16:33:55.335Z,6.70
2022-11-04T16:36:24.672Z,1.40
2022-11-04T16:38:56.511Z,2.75
2022-11-04T16:41:28.406Z,1.83
2022-11-04T16:43:55.367Z,2.38
2022-11-04T16:46:22.587Z,5.25
2022-11-04T16:48:50.134Z,0.60
2022-11-04T16:51:21.833Z,4.80
2022-11-04T16:53:53.240Z,1.67
2022-11-04T16:56:23.043Z,4.25
2022-11-04T16:58:49.445Z,1.17
2022-11-04T17:01:16.296Z,1.93
2022-11-04T17:03:45.706Z,2.75
2022-11-04T17:06:14.195Z,3.15
2022-11-04T17:08:44.456Z,1.30
2022-11-04T17:11:11.759Z,7.22
2022-11-04T17:13:39.255Z,4.63
2022-11-04T17:16:08.084Z,4.40
2022-11-04T17:18:35.466Z,3.85
2022-11-04T17:21:06.168Z,3.05
2022-11-04T17:23:32.989Z,3.75
2022-11-04T17:25:59.553Z,2.93
2022-11-04T17:28:26.979Z,5.45
2022-11-04T17:30:53.803Z,3.65
2022-11-04T17:33:20.692Z,4.80
2022-11-04T17:35:50.101Z,2.20
2022-11-04T17:38:18.448Z,7.03
2022-11-04T17:41:03.848Z,3.28
2022-11-04T17:43:49.089Z,1.30
2022-11-04T17:46:34.537Z,4.03
2022-11-04T17:49:18.957Z,5.13
2022-11-04T17:51:48.218Z,4.43
2022-11-04T17:54:15.686Z,4.35
2022-11-04T17:56:42.946Z,5.93
2022-11-04T17:59:12.273Z,5.22
2022-11-04T18:01:39.948Z,3.88
2022-11-04T18:04:07.269Z,4.47
2022-11-04T18:06:35.667Z,4.07
2022-11-04T18:09:03.693Z,6.45
2022-11-04T18:11:48.729Z,5.28
2022-11-04T18:14:17.177Z,6.80
2022-11-04T18:16:46.593Z,2.73
2022-11-04T18:19:13.516Z,3.17
2022-11-04T18:21:39.969Z,5.28
2022-11-04T18:24:06.819Z,3.30
2022-11-04T18:26:33.302Z,4.15
2022-11-04T18:29:00.731Z,5.53
2022-11-04T18:31:36.075Z,6.68
2022-11-04T18:34:06.385Z,5.05
2022-11-04T18:36:37.583Z,5.80
2022-11-04T18:39:06.690Z,2.10
2022-11-04T18:41:34.823Z,2.87
2022-11-04T18:44:01.454Z,4.82
2022-11-04T18:46:28.774Z,4.85
2022-11-04T18:48:55.216Z,1.85
2022-11-04T18:51:22.927Z,3.92
2022-11-04T18:53:50.837Z,1.83
2022-11-04T18:56:21.359Z,5.03
2022-11-04T18:58:48.732Z,4.78
2022-11-04T19:01:27.991Z,3.97
2022-11-04T19:03:54.758Z,9.70
2022-11-04T19:06:24.934Z,5.63
2022-11-04T19:08:52.945Z,6.38
2022-11-04T19:11:23.677Z,5.55
2022-11-04T19:13:52.110Z,4.30
2022-11-04T19:16:18.886Z,13.70
2022-11-04T19:18:47.600Z,8.63
2022-11-04T19:21:14.022Z,10.80
2022-11-04T19:23:40.475Z,10.27
2022-11-04T19:26:15.975Z,7.63
2022-11-04T19:28:48.693Z,8.93
2022-11-04T19:31:21.943Z,6.80
2022-11-04T19:33:49.339Z,6.53
2022-11-04T19:36:18.180Z,7.80
2022-11-04T19:38:45.619Z,6.75
2022-11-04T19:41:33.165Z,5.88
2022-11-04T19:44:02.223Z,7.63
2022-11-04T19:46:28.947Z,7.80
2022-11-04T19:48:59.080Z,5.55
2022-11-04T19:51:31.577Z,5.50
2022-11-04T19:53:59.040Z,3.20
2022-11-04T19:56:25.900Z,6.10
2022-11-04T19:58:52.453Z,4.40
2022-11-04T20:01:19.163Z,2.72
2022-11-04T20:03:45.653Z,10.30
2022-11-04T20:06:15.135Z,4.88
2022-11-04T20:08:44.137Z,4.87
2022-11-04T20:11:12.131Z,9.57
2022-11-04T20:13:44.730Z,14.13
2022-11-04T20:16:13.688Z,9.10
2022-11-04T20:18:40.158Z,12.48
2022-11-04T20:21:06.789Z,9.93
2022-11-04T20:23:33.463Z,6.22
2022-11-04T20:26:08.234Z,3.72
2022-11-04T20:28:34.712Z,5.03
2022-11-04T20:31:01.676Z,4.82
2022-11-04T20:33:28.129Z,4.13
2022-11-04T20:35:54.611Z,9.23
2022-11-04T20:38:21.027Z,5.80
2022-11-04T20:40:48.300Z,8.20
2022-11-04T20:43:14.772Z,9.73
2022-11-04T20:45:41.205Z,9.43
2022-11-04T20:48:07.863Z,5.78
2022-11-04T20:50:36.251Z,6.10
2022-11-04T20:53:02.712Z,8.45
2022-11-04T20:55:29.166Z,7.95
2022-11-04T20:57:55.578Z,4.80
2022-11-04T21:00:23.287Z,5.35
2022-11-04T21:02:50.426Z,3.85
2022-11-04T21:05:16.993Z,8.48
2022-11-04T21:07:43.500Z,6.07
2022-11-04T21:10:09.921Z,5.50
2022-11-04T21:12:36.518Z,7.95
2022-11-04T21:15:03.257Z,6.85
2022-11-04T21:17:29.774Z,8.73
2022-11-04T21:19:56.274Z,5.28
2022-11-04T21:22:22.709Z,6.60
2022-11-04T21:24:49.126Z,7.68
2022-11-04T21:27:15.532Z,3.40
2022-11-04T21:29:42.208Z,4.05
2022-11-04T21:32:10.572Z,8.23
2022-11-04T21:34:37.138Z,4.33
2022-11-04T21:37:03.621Z,5.15
2022-11-04T21:39:30.100Z,8.48
2022-11-04T21:41:56.625Z,5.13
2022-11-04T21:44:23.858Z,5.82
2022-11-04T21:46:50.305Z,11.17
2022-11-04T21:49:16.762Z,6.03
2022-11-04T21:51:43.136Z,6.13
2022-11-04T21:54:10.287Z,4.63
2022-11-04T21:56:36.870Z,5.13
2022-11-04T21:59:04.092Z,8.17
2022-11-04T22:01:31.165Z,7.20
2022-11-04T22:04:00.125Z,4.78
2022-11-04T22:06:33.472Z,8.63
2022-11-04T22:09:01.922Z,5.53
2022-11-04T22:11:31.282Z,10.77
2022-11-04T22:14:00.251Z,7.63
2022-11-04T22:16:29.986Z,6.15
2022-11-04T22:18:59.955Z,8.27
2022-11-04T22:21:28.420Z,8.55
2022-11-04T22:23:55.510Z,5.07
2022-11-04T22:26:24.755Z,8.13
2022-11-04T22:28:52.803Z,5.60
2022-11-04T22:31:23.749Z,5.05
2022-11-04T22:33:53.613Z,4.97
2022-11-04T22:36:20.454Z,20.57
2022-11-04T22:38:47.168Z,44.13
2022-11-04T22:41:17.375Z,38.70
2022-11-04T22:43:44.209Z,20.55
2022-11-04T22:46:19.772Z,8.68
2022-11-04T22:48:46.386Z,4.40
2022-11-04T22:51:13.154Z,4.80
2022-11-04T22:53:40.201Z,5.78
2022-11-04T22:56:08.970Z,7.68
2022-11-04T22:58:35.455Z,5.75
2022-11-04T23:01:08.767Z,7.23
2022-11-04T23:03:35.871Z,7.32
2022-11-04T23:06:04.801Z,6.30
2022-11-04T23:08:33.131Z,4.40
2022-11-04T23:11:21.613Z,3.50
2022-11-04T23:14:09.529Z,3.47
2022-11-04T23:16:57.999Z,3.75
2022-11-04T23:19:29.755Z,1.80
2022-11-04T23:22:15.867Z,3.25
2022-11-04T23:25:00.987Z,3.95
2022-11-04T23:27:46.253Z,3.53
2022-11-04T23:30:25.161Z,5.40
2022-11-04T23:32:54.673Z,3.97
2022-11-04T23:35:42.429Z,2.63
2022-11-04T23:38:09.414Z,3.53
2022-11-04T23:40:36.013Z,2.77
2022-11-04T23:43:02.704Z,4.97
2022-11-04T23:45:48.563Z,3.58
2022-11-04T23:48:33.852Z,2.75
2022-11-04T23:51:19.904Z,1.95
2022-11-04T23:54:05.678Z,5.47
2022-11-04T23:56:51.877Z,4.40
2022-11-04T23:59:37.700Z,5.30
